Tweed-New Haven Regional Airport

Airport
ICAO code: 
KHVN
Summary
ICAO Region: 
NAM
Territory: 
Location: 
New Haven, Connecticut,
Elevation: 
12 ft
Coordinates: 
Aerial View: 
41° 16' 7.948" N, 72° 53' 28.433" W
Airport WX: 
Cumulonimbus
Metar
Observation
KHVN 021453Z 21009KT 10SM CLR 14/09 A2979 RMK AO2 SLP088 T01390094 56030
Station
New Haven, Tweed-New Haven Airport
Date/Time
2021-12-02 14:53:00
Wind direction
210°
Wind speed
09 kts
Lowest cloud amount
n/a
Temperature
13.9°C
Dew point
9.4°C
Humidity
74%
Weather condition
n/a

Description

Tweed New Haven Regional Airport, formerly known as Tweed-New Haven Airport, is a public airport located 5 km southeast of the central business district of New Haven, Connecticut.

Climatology

New Haven lies in the transition between a humid continental climate (Köppen climate classification Dfa) and humid subtropical climate (Köppen climate classification Cfa/), but has more characteristics of the former, characterized by hot, humid summers and cool/cold winters. Significant amounts of precipitation occur in all seasons in most areas. Winter rainfall (and snowfall) is associated with large storms that the westerlies steer from west to east. Most summer rainfall occurs during thunderstorms.

Runways

Designator Length Width Surface Rops
14/32 1105 30 ASP Yes/Yes
2/20 1707 46 ASP Yes/Yes
Airport map: 
Aerial View: 

SKYbrary Partners:

Safety knowledge contributed by: